EGVP - Middle Wallop
Distance from station: E 5mi, 14km
Updated: 02/19/2018 7:50am
Mostly Cloudy
Mostly Cloudy
 Wind from NW
Wind: NW 10 mph , 17 km/h
Temperature: 52°F , 11°C
Dew Point: 48°F , 9°C
Humidity: 88%
Barometer: 30 inHg , 1016 hPa
Clouds: Mostly Cloudy
Visibility: 6 miles , 10 km
Cloud details: Few Clouds 1300 ft
Mostly Cloudy 8000 ft
2018/02/19 15:50 EGVP 191550Z 31009KT 9999 FEW013 BKN080 11/09 Q1016 BLU NOSIG